Blue Rock, Ohio
Current Conditions -  °F | °C
As of 9:53 PM on Friday 21 Nov 2014 (Local Time) from KZZV Reporting Station
Clear Clear  
Wind Chill: 17°   Ceiling: Unl
Heat Index: 17°   Visibility: 10mi
Dew Point: 10°   Wind: 0mph
Humidity: 74%   Direction: NA
Pressure: 30.44"   Gusts: NA
Location:  39.8°N, 81.89°W
Report Text: KZZV 220253Z AUTO 00000KT 10SM CLR M08/M12 A3044 RMK AO2 SLP321 T10831122 58013
Loading
Personal Weather Stations






























Interactive Weather Map New forecast layout! Learn more

10-Day Weather Forecast

Advertisements
Track Severe Weather on mobile